Time;durP1;ratioP1;P1;durP2;ratioP2;P2;SDS_P1;SDS_P2;PMS_P1;PMS_P2;Temp;Humidity;BMP_temperature;BMP_pressure;BME280_temperature;BME280_humidity;BME280_pressure;Samples;Min_cycle;Max_cycle;Signal;HPM_P1;HPM_P2
2022/04/28 03:27:45;;;;;;;;;;;;;;;7.48;100.00;100457.03;6243602;22;19926;-81
2022/04/28 03:30:10;;;;;;;;;;;;;;;7.48;100.00;100462.31;6218470;23;19947;-81
2022/04/28 03:32:36;;;;;;;;;;;;;;;7.50;100.00;100463.13;6245398;23;19915;-82
2022/04/28 03:35:01;;;;;;;;;;;;;;;7.47;100.00;100461.44;6217884;23;19939;-82
2022/04/28 03:37:26;;;;;;;;;;;;;;;7.48;100.00;100463.16;6245032;23;20005;-82
2022/04/28 03:39:51;;;;;;;;;;;;;;;7.54;100.00;100472.75;6243299;23;19947;-82
2022/04/28 03:42:17;;;;;;;;;;;;;;;7.58;100.00;100467.38;6244743;23;19922;-82
2022/04/28 03:44:42;;;;;;;;;;;;;;;7.53;100.00;100471.88;6244928;23;19966;-84
2022/04/28 03:47:08;;;;;;;;;;;;;;;7.53;100.00;100468.34;6244537;23;20003;-88
2022/04/28 03:49:33;;;;;;;;;;;;;;;7.58;100.00;100469.16;6244950;23;19944;-85
2022/04/28 03:51:59;;;;;;;;;;;;;;;7.57;100.00;100467.41;6244752;23;19908;-83
2022/04/28 03:54:24;;;;;;;;;;;;;;;7.58;100.00;100467.38;6217138;23;19919;-85
2022/04/28 03:56:49;;;;;;;;;;;;;;;7.36;100.00;100479.25;6244077;23;20004;-84
2022/04/28 03:59:14;;;;;;;;;;;;;;;6.72;100.00;100482.94;6244795;23;19926;-84
2022/04/28 04:01:40;;;;;;;;;;;;;;;6.45;100.00;100478.13;6244726;23;20282;-84
2022/04/28 04:04:05;;;;;;;;;;;;;;;6.46;100.00;100479.84;6218015;23;20389;-85
2022/04/28 04:06:31;;;;;;;;;;;;;;;6.42;100.00;100473.75;6244680;23;19990;-84
2022/04/28 04:08:56;;;;;;;;;;;;;;;6.30;100.00;100485.34;6244894;23;20146;-86
2022/04/28 04:11:22;;;;;;;;;;;;;;;6.22;100.00;100481.94;6216099;23;19973;-85
2022/04/28 04:13:47;;;;;;;;;;;;;;;6.06;99.50;100483.91;6244673;23;19937;-87
2022/04/28 04:16:13;;;;;;;;;;;;;;;5.92;99.34;100483.16;6244733;23;19912;-92
2022/04/28 04:18:38;;;;;;;;;;;;;;;5.97;99.26;100490.16;6244766;23;20291;-89
2022/04/28 04:21:04;;;;;;;;;;;;;;;5.92;98.88;100493.69;6217801;23;19918;-93
2022/04/28 04:23:29;;;;;;;;;;;;;;;5.81;98.53;100496.47;6244964;23;19961;-84
2022/04/28 04:25:54;;;;;;;;;;;;;;;5.79;98.56;100498.25;6248829;22;20235;-87
2022/04/28 04:28:19;;;;;;;;;;;;;;;5.74;98.51;100494.78;6250092;22;19949;-87
2022/04/28 04:33:28;;;;;;;;;;;;;;;5.69;97.91;100502.75;6277369;22;20053;-86
2022/04/28 04:35:54;;;;;;;;;;;;;;;5.68;97.85;100505.38;6277109;22;19942;-86
2022/04/28 04:38:19;;;;;;;;;;;;;;;5.58;97.50;100509.88;6277193;22;19923;-85
2022/04/28 04:40:44;;;;;;;;;;;;;;;5.51;97.30;100511.69;6275637;22;20331;-91
2022/04/28 04:43:13;;;;;;;;;;;;;;;5.50;97.32;100523.09;6276986;22;19994;-91
2022/04/28 07:22:52;;;;;;;;;;;;;;;4.41;88.51;100621.09;6334117;22;19961;-88
2022/04/28 07:25:17;;;;;;;;;;;;;;;4.42;88.50;100623.72;6304634;22;19915;-86
2022/04/28 07:27:42;;;;;;;;;;;;;;;4.38;88.48;100623.72;6278122;22;19972;-86
2022/04/28 07:30:08;;;;;;;;;;;;;;;4.42;88.52;100628.97;6277744;22;19911;-87
2022/04/28 07:32:33;;;;;;;;;;;;;;;4.42;88.53;100626.34;6278165;22;19968;-85
2022/04/28 07:34:58;;;;;;;;;;;;;;;4.39;88.74;100626.34;6279488;22;19915;-85
2022/04/28 07:37:24;;;;;;;;;;;;;;;4.38;88.69;100631.59;6277696;22;19915;-85
2022/04/28 07:39:49;;;;;;;;;;;;;;;4.41;88.66;100632.44;6306202;22;19911;-86
2022/04/28 07:42:15;;;;;;;;;;;;;;;4.42;88.69;100626.34;6305855;22;19915;-85
2022/04/28 07:44:40;;;;;;;;;;;;;;;4.36;88.59;100636.84;6307031;22;19938;-86
2022/04/28 07:47:05;;;;;;;;;;;;;;;4.43;88.78;100629.81;6278505;22;19911;-85
2022/04/28 07:49:31;;;;;;;;;;;;;;;4.35;88.93;100632.47;6277856;22;19915;-88
2022/04/28 07:51:56;;;;;;;;;;;;;;;4.41;89.01;100637.69;6277770;22;19972;-84
2022/04/28 07:54:22;;;;;;;;;;;;;;;4.39;88.89;100635.94;6278563;22;19911;-84
2022/04/28 07:56:48;;;;;;;;;;;;;;;4.35;88.91;100632.47;6279130;22;20343;-88
2022/04/28 07:59:13;;;;;;;;;;;;;;;4.51;89.03;100636.75;6279544;22;19915;-85
2022/04/28 08:01:38;;;;;;;;;;;;;;;4.41;89.11;100635.06;6308969;22;19915;-86
2022/04/28 08:04:04;;;;;;;;;;;;;;;4.42;88.98;100643.81;6281054;22;20323;-84
2022/04/28 08:06:29;;;;;;;;;;;;;;;4.43;88.78;100637.69;6308386;22;19949;-84
2022/04/28 08:08:54;;;;;;;;;;;;;;;4.40;88.99;100642.94;6279674;22;19934;-85
2022/04/28 08:11:20;;;;;;;;;;;;;;;4.50;89.26;100640.28;6279677;22;19938;-84
2022/04/28 08:13:45;;;;;;;;;;;;;;;4.41;88.70;100642.94;6281081;22;19921;-85
2022/04/28 08:16:10;;;;;;;;;;;;;;;4.38;88.73;100640.31;6308431;22;20238;-86
2022/04/28 08:18:37;;;;;;;;;;;;;;;4.31;88.84;100642.13;6307721;22;19911;-86
2022/04/28 08:21:03;;;;;;;;;;;;;;;4.48;89.01;100633.28;6279472;22;19917;-85
2022/04/28 08:23:28;;;;;;;;;;;;;;;4.39;88.71;100642.09;6315027;22;19971;-84
2022/04/28 08:25:54;;;;;;;;;;;;;;;4.45;88.70;100647.31;6312290;22;20322;-85
2022/04/28 08:28:19;;;;;;;;;;;;;;;4.45;89.05;100641.16;6311703;22;20334;-85
2022/04/28 08:30:44;;;;;;;;;;;;;;;4.44;88.99;100650.81;6311903;22;20325;-84
2022/04/28 08:33:09;;;;;;;;;;;;;;;4.43;88.87;100646.44;6311594;22;19914;-84
2022/04/28 08:35:35;;;;;;;;;;;;;;;4.46;89.25;100646.41;6339268;22;19911;-83
2022/04/28 08:38:00;;;;;;;;;;;;;;;4.47;88.61;100636.81;6337301;22;19916;-89
2022/04/28 08:40:25;;;;;;;;;;;;;;;4.45;88.84;100639.44;6312044;22;19919;-85
2022/04/28 08:42:52;;;;;;;;;;;;;;;4.45;88.47;100644.69;6339150;22;20314;-85
2022/04/28 08:45:19;;;;;;;;;;;;;;;4.43;88.03;100643.81;6338996;22;19921;-84
2022/04/28 08:47:46;;;;;;;;;;;;;;;4.38;87.97;100648.19;6312015;22;19911;-86
2022/04/28 08:50:11;;;;;;;;;;;;;;;4.36;88.29;100644.72;6338361;22;19945;-88
2022/04/28 08:52:37;;;;;;;;;;;;;;;4.45;88.25;100647.31;6337632;22;20385;-90
2022/04/28 08:55:03;;;;;;;;;;;;;;;4.42;87.86;100646.44;6312099;22;19934;-85
2022/04/28 08:57:28;;;;;;;;;;;;;;;4.49;88.27;100650.78;6311705;22;19915;-85
2022/04/28 08:59:55;;;;;;;;;;;;;;;4.52;87.91;100642.91;6310541;22;19997;-86
2022/04/28 09:02:26;;;;;;;;;;;;;;;4.42;87.48;100652.56;6311895;22;19914;-84
2022/04/28 09:04:58;;;;;;;;;;;;;;;4.45;87.63;100644.69;6338563;22;20223;-84
2022/04/28 09:07:30;;;;;;;;;;;;;;;4.45;87.46;100649.94;6337337;22;19914;-87
2022/04/28 09:09:56;;;;;;;;;;;;;;;4.41;87.57;100656.06;6339037;22;19914;-85
2022/04/28 09:12:21;;;;;;;;;;;;;;;4.40;87.59;100649.06;6338923;22;19915;-84
2022/04/28 09:14:46;;;;;;;;;;;;;;;4.40;87.88;100651.69;6339184;22;19911;-88
2022/04/28 09:17:12;;;;;;;;;;;;;;;4.39;87.66;100644.72;6311304;22;19915;-84
2022/04/28 09:19:41;;;;;;;;;;;;;;;4.39;87.83;100655.22;6338403;22;19910;-90
2022/04/28 09:22:12;;;;;;;;;;;;;;;4.43;87.58;100643.81;6309774;22;19933;-90
2022/04/28 09:24:43;;;;;;;;;;;;;;;4.42;87.52;100644.69;6310748;22;19915;-85
2022/04/28 09:27:09;;;;;;;;;;;;;;;4.38;87.40;100642.94;6286775;22;20225;-86
2022/04/28 09:29:43;;;;;;;;;;;;;;;4.34;87.32;100641.19;6311041;22;19950;-85
2022/04/28 09:32:10;;;;;;;;;;;;;;;4.35;87.56;100641.19;6338750;22;19907;-86
2022/04/28 09:34:44;;;;;;;;;;;;;;;4.45;87.56;100647.31;6311363;22;19918;-88
2022/04/28 09:37:14;;;;;;;;;;;;;;;4.31;87.40;100636.00;6309295;22;19906;-84
2022/04/28 09:42:39;;;;;;;;;;;;;;;4.34;87.50;100641.19;6338625;22;19941;-86
2022/04/28 09:45:05;;;;;;;;;;;;;;;4.32;87.35;100642.97;6337747;22;19946;-87
2022/04/28 09:47:31;;;;;;;;;;;;;;;4.36;87.36;100642.09;6310140;22;19911;-88
2022/04/28 09:49:56;;;;;;;;;;;;;;;4.35;87.15;100643.81;6310583;22;20040;-85
2022/04/28 09:52:31;;;;;;;;;;;;;;;4.34;87.09;100643.81;6337252;22;19949;-89
2022/04/28 09:54:57;;;;;;;;;;;;;;;4.37;87.25;100643.81;6338678;22;19915;-89
2022/04/28 09:57:23;;;;;;;;;;;;;;;4.37;87.24;100635.94;6338539;22;19915;-86
2022/04/28 09:59:55;;;;;;;;;;;;;;;4.36;87.17;100636.84;6311002;22;19915;-86
2022/04/28 10:02:22;;;;;;;;;;;;;;;4.34;87.42;100636.84;6310522;22;19910;-87
2022/04/28 10:04:48;;;;;;;;;;;;;;;4.33;87.49;100632.47;6338619;22;20193;-84
2022/04/28 10:07:14;;;;;;;;;;;;;;;4.26;87.22;100635.13;6336797;22;20242;-89
2022/04/28 10:09:40;;;;;;;;;;;;;;;4.43;87.72;100646.44;6310372;22;19911;-86
2022/04/28 10:12:06;;;;;;;;;;;;;;;4.41;87.59;100632.44;6310669;22;19910;-88
2022/04/28 10:14:33;;;;;;;;;;;;;;;4.46;87.40;100640.31;6338310;22;19926;-87
2022/04/28 10:17:00;;;;;;;;;;;;;;;4.57;87.53;100628.00;6338520;22;19949;-88
2022/04/28 10:19:28;;;;;;;;;;;;;;;4.53;86.77;100631.50;6337539;22;19915;-90
2022/04/28 10:22:05;;;;;;;;;;;;;;;4.49;86.51;100630.66;6308957;22;20238;-88
2022/04/28 10:33:00;;;;;;;;;;;;;;;4.43;85.68;100633.31;6338116;22;19998;-86
2022/04/28 10:35:37;;;;;;;;;;;;;;;4.33;85.66;100634.22;6337589;22;19910;-87
2022/04/28 10:38:09;;;;;;;;;;;;;;;4.33;85.83;100623.75;6308467;22;19960;-88
2022/04/28 10:40:39;;;;;;;;;;;;;;;4.38;85.74;100624.59;6310185;22;19910;-86
2022/04/28 10:43:17;;;;;;;;;;;;;;;4.41;85.67;100619.31;6310818;22;20002;-88
2022/04/28 10:45:44;;;;;;;;;;;;;;;4.41;85.64;100618.47;6310186;22;19922;-85
2022/04/28 10:48:25;;;;;;;;;;;;;;;4.40;85.40;100614.94;6338615;22;19915;-86
2022/04/28 10:51:00;;;;;;;;;;;;;;;4.35;85.19;100622.84;6338254;22;19993;-89
2022/04/28 10:53:27;;;;;;;;;;;;;;;4.40;85.05;100604.44;6308250;22;19914;-88
2022/04/28 10:55:52;;;;;;;;;;;;;;;4.48;85.07;100614.91;6310829;22;19918;-87
2022/04/28 10:58:21;;;;;;;;;;;;;;;4.44;84.87;100605.34;6338128;22;19914;-86
2022/04/28 11:23:06;;;;;;;;;;;;;;;;;;;;;
2022/04/28 12:03:55;;;;;;;;;;;;;;;;;;;;;
2022/04/28 12:58:18;;;;;;;;;;;;;;;;;;;;;
2022/04/28 13:00:58;;;;;;;;;;;;;;;;;;;;;
2022/04/28 13:07:04;;;;;;;;;;;;;;;;;;;;;
2022/04/28 13:10:15;;;;;;;;;;;;;;;;;;;;;
2022/04/28 13:41:52;;;;;;;;;;;;;;;;;;;;;
2022/04/28 14:56:25;;;;;;;;;;;;;;;;;;;;;
2022/04/28 15:27:08;;;;;;;;;;;;;;;5.22;90.83;100501.50;6199200;23;19948;-82
2022/04/28 15:29:34;;;;;;;;;;;;;;;5.47;90.20;100496.84;6294764;22;19910;-90
2022/04/28 15:32:05;;;;;;;;;;;;;;;5.28;89.99;100498.78;6310048;22;20459;-90
2022/04/28 15:34:32;;;;;;;;;;;;;;;5.16;89.99;100491.03;6310256;22;19918;-91
2022/04/28 15:36:58;;;;;;;;;;;;;;;5.16;89.89;100502.41;6307655;22;19918;-93
2022/04/28 15:39:24;;;;;;;;;;;;;;;5.12;89.50;100498.06;6308439;22;19910;-90
2022/04/28 15:41:50;;;;;;;;;;;;;;;5.09;89.25;100498.97;6310884;22;19917;-91
2022/04/28 15:44:16;;;;;;;;;;;;;;;5.06;88.96;100500.75;6311452;22;19915;-92
2022/04/28 15:46:41;;;;;;;;;;;;;;;5.11;88.61;100506.84;6311575;22;20278;-91
2022/04/28 15:49:07;;;;;;;;;;;;;;;5.15;88.43;100498.03;6311891;22;19911;-95
2022/04/28 15:51:33;;;;;;;;;;;;;;;5.13;88.26;100497.19;6314936;22;19932;-94
2022/04/28 15:53:59;;;;;;;;;;;;;;;5.02;87.95;100491.16;6312654;22;19915;-92
2022/04/28 15:56:24;;;;;;;;;;;;;;;4.94;87.84;100485.97;6313420;22;19911;-90
2022/04/28 15:58:50;;;;;;;;;;;;;;;4.90;87.76;100489.53;6312734;22;19964;-93
2022/04/28 16:01:19;;;;;;;;;;;;;;;4.88;87.81;100483.38;6340392;22;19915;-92
2022/04/28 16:03:48;;;;;;;;;;;;;;;4.89;87.77;100493.00;6310263;22;19910;-94
2022/04/28 16:06:14;;;;;;;;;;;;;;;4.86;87.63;100483.41;6338684;22;20235;-93
2022/04/28 16:08:39;;;;;;;;;;;;;;;4.84;87.55;100489.56;6336825;22;19994;-93
2022/04/28 16:11:05;;;;;;;;;;;;;;;4.85;87.57;100492.19;6310073;22;19957;-93
2022/04/28 16:13:30;;;;;;;;;;;;;;;4.83;87.48;100490.44;6338277;22;19915;-92
2022/04/28 16:15:56;;;;;;;;;;;;;;;4.88;87.57;100491.25;6338390;22;19982;-92
2022/04/28 16:18:21;;;;;;;;;;;;;;;4.89;87.40;100487.75;6308906;22;19946;-90
2022/04/28 16:20:46;;;;;;;;;;;;;;;4.80;87.18;100483.44;6312252;22;19956;-92
2022/04/28 16:23:12;;;;;;;;;;;;;;;4.77;87.03;100482.59;6307173;22;19938;-94
2022/04/28 16:25:38;;;;;;;;;;;;;;;4.75;87.12;100476.50;6306975;22;19915;-93
2022/04/28 16:28:16;;;;;;;;;;;;;;;4.78;87.18;100479.97;6307249;22;20246;-93
2022/04/28 16:30:42;;;;;;;;;;;;;;;4.76;87.20;100481.75;6309916;22;20350;-94
2022/04/28 16:33:07;;;;;;;;;;;;;;;4.76;87.46;100486.13;6306492;22;20072;-91
2022/04/28 16:35:33;;;;;;;;;;;;;;;4.76;87.35;100483.50;6306151;22;19911;-88
2022/04/28 16:37:58;;;;;;;;;;;;;;;4.73;87.25;100487.03;6305540;22;20314;-91
2022/04/28 16:40:24;;;;;;;;;;;;;;;4.79;87.41;100480.88;6306527;22;19915;-95
2022/04/28 16:42:53;;;;;;;;;;;;;;;4.75;87.07;100485.25;6309182;22;19956;-92
2022/04/28 16:45:19;;;;;;;;;;;;;;;4.72;87.01;100482.63;6307830;22;19934;-91
2022/04/28 16:47:44;;;;;;;;;;;;;;;4.70;87.00;100489.66;6306791;22;20242;-91
2022/04/28 16:50:09;;;;;;;;;;;;;;;4.68;87.10;100488.81;6307991;22;19918;-93
2022/04/28 16:52:40;;;;;;;;;;;;;;;4.74;87.02;100491.41;6305919;22;19925;-92
2022/04/28 16:55:05;;;;;;;;;;;;;;;4.73;87.17;100492.25;6309664;22;19917;-96
2022/04/28 16:57:30;;;;;;;;;;;;;;;4.75;87.07;100495.75;6307415;22;19911;-94
2022/04/28 16:59:56;;;;;;;;;;;;;;;4.71;86.92;100488.78;6305770;22;19914;-93
2022/04/28 17:02:23;;;;;;;;;;;;;;;4.68;86.97;100487.06;6306839;22;20001;-91
2022/04/28 17:04:50;;;;;;;;;;;;;;;4.63;86.88;100490.59;6306808;22;19957;-90
2022/04/28 17:07:15;;;;;;;;;;;;;;;4.65;87.08;100496.72;6306262;22;19934;-91
2022/04/28 17:09:43;;;;;;;;;;;;;;;4.62;86.91;100486.22;6308179;22;20287;-90
2022/04/28 17:12:08;;;;;;;;;;;;;;;4.68;86.76;100494.06;6307685;22;20327;-89
2022/04/28 17:14:34;;;;;;;;;;;;;;;4.64;86.70;100497.59;6307915;22;19914;-89
2022/04/28 17:17:00;;;;;;;;;;;;;;;4.64;86.85;100497.59;6306201;22;20324;-89
2022/04/28 17:19:25;;;;;;;;;;;;;;;4.65;86.74;100502.81;6305434;22;19915;-88
2022/04/28 17:21:51;;;;;;;;;;;;;;;4.65;86.74;100504.59;6306704;22;19918;-89
2022/04/28 17:24:18;;;;;;;;;;;;;;;4.62;86.92;100509.84;6310935;22;19910;-88
2022/04/28 17:26:46;;;;;;;;;;;;;;;4.65;86.78;100502.81;6338188;22;19994;-90
2022/04/28 17:29:12;;;;;;;;;;;;;;;4.62;86.98;100504.59;6310703;22;19997;-90
2022/04/28 17:31:38;;;;;;;;;;;;;;;4.66;86.54;100501.94;6310093;22;20334;-87
2022/04/28 17:34:06;;;;;;;;;;;;;;;4.62;86.78;100499.34;6310435;22;19917;-88
2022/04/28 17:36:31;;;;;;;;;;;;;;;4.68;86.78;100499.31;6310487;22;19915;-88
2022/04/28 17:38:57;;;;;;;;;;;;;;;4.68;86.53;100504.56;6336800;22;19915;-88
2022/04/28 17:41:23;;;;;;;;;;;;;;;4.62;86.62;100504.59;6310748;22;20223;-89
2022/04/28 17:43:48;;;;;;;;;;;;;;;4.57;86.43;100507.25;6310481;22;19985;-89
2022/04/28 17:46:15;;;;;;;;;;;;;;;4.52;86.40;100504.66;6337676;22;19919;-89
2022/04/28 17:48:41;;;;;;;;;;;;;;;4.54;86.35;100497.63;6310090;22;20257;-89
2022/04/28 17:51:06;;;;;;;;;;;;;;;4.54;86.39;100508.13;6310329;22;19911;-90
2022/04/28 17:53:31;;;;;;;;;;;;;;;4.54;86.42;100508.13;6309362;22;19910;-89
2022/04/28 18:01:26;;;;;;;;;;;;;;;4.51;86.39;100512.53;6338753;22;19918;-89
2022/04/28 18:03:52;;;;;;;;;;;;;;;4.45;86.41;100521.34;6338923;22;20323;-90
2022/04/28 18:06:17;;;;;;;;;;;;;;;4.47;86.49;100521.34;6338550;22;19919;-89
2022/04/28 18:08:43;;;;;;;;;;;;;;;4.53;86.74;100521.28;6337177;22;19933;-89
2022/04/28 18:11:08;;;;;;;;;;;;;;;4.49;86.37;100530.06;6338499;22;20306;-89
2022/04/28 18:13:34;;;;;;;;;;;;;;;4.47;86.60;100534.47;6311048;22;20355;-92
2022/04/28 18:15:59;;;;;;;;;;;;;;;4.46;86.61;100533.56;6310311;22;20000;-88
2022/04/28 18:18:24;;;;;;;;;;;;;;;4.43;86.73;100544.06;6310231;22;20385;-89
2022/04/28 18:20:50;;;;;;;;;;;;;;;4.47;86.74;100543.19;6310046;22;19917;-89
2022/04/28 18:23:17;;;;;;;;;;;;;;;4.48;86.67;100544.94;6304142;22;19914;-91
2022/04/28 18:25:42;;;;;;;;;;;;;;;4.44;86.70;100534.47;6306350;22;19990;-89
2022/04/28 18:28:07;;;;;;;;;;;;;;;4.49;86.41;100540.56;6306246;22;19915;-88
2022/04/28 18:30:33;;;;;;;;;;;;;;;4.46;86.31;100541.44;6305204;22;19919;-90
2022/04/28 18:33:01;;;;;;;;;;;;;;;4.43;86.62;100535.34;6305008;22;19911;-89
2022/04/28 18:46:23;;;;;;;;;;;;;;;4.41;86.38;100558.97;6306108;22;20346;-88
2022/04/28 18:48:49;;;;;;;;;;;;;;;4.43;86.50;100551.94;6303643;22;19911;-90
2022/04/28 18:51:14;;;;;;;;;;;;;;;4.41;86.45;100552.84;6303561;22;19915;-89
2022/04/28 18:53:39;;;;;;;;;;;;;;;4.39;86.48;100555.50;6303074;22;19946;-89
2022/04/28 18:56:07;;;;;;;;;;;;;;;4.36;86.35;100552.88;6304230;22;19969;-89
2022/04/28 18:58:32;;;;;;;;;;;;;;;4.36;86.55;100566.88;6303922;22;19983;-90
2022/04/28 19:00:57;;;;;;;;;;;;;;;4.37;86.47;100572.97;6303943;22;19915;-90
2022/04/28 19:03:25;;;;;;;;;;;;;;;4.38;86.42;100566.84;6303945;22;20247;-89
2022/04/28 19:05:50;;;;;;;;;;;;;;;4.36;86.50;100571.25;6304283;22;20307;-90
2022/04/28 19:08:16;;;;;;;;;;;;;;;4.38;86.49;100566.84;6302368;22;19960;-89
2022/04/28 19:10:43;;;;;;;;;;;;;;;4.45;86.14;100581.72;6304865;22;20311;-89
2022/04/28 19:13:09;;;;;;;;;;;;;;;4.34;86.02;100578.22;6305726;22;19917;-91
2022/04/28 19:15:35;;;;;;;;;;;;;;;4.36;85.97;100582.59;6304345;22;19990;-91
2022/04/28 19:18:00;;;;;;;;;;;;;;;4.43;86.04;100587.81;6304518;22;19933;-91
2022/04/28 19:20:26;;;;;;;;;;;;;;;4.33;86.04;100587.88;6303549;22;19915;-91
2022/04/28 19:22:54;;;;;;;;;;;;;;;4.35;86.10;100591.34;6302445;22;19994;-91
2022/04/28 19:25:20;;;;;;;;;;;;;;;4.36;85.87;100594.88;6303699;22;19911;-90
2022/04/28 19:27:46;;;;;;;;;;;;;;;4.33;85.86;100593.13;6304673;22;19911;-91
2022/04/28 19:30:12;;;;;;;;;;;;;;;4.37;85.96;100596.59;6303849;22;20315;-90
2022/04/28 19:32:39;;;;;;;;;;;;;;;5.21;86.26;100594.34;6303868;22;19919;-78
2022/04/28 19:35:08;;;;;;;;;;;;;;;4.89;86.05;100598.94;6304359;22;19922;-88
2022/04/28 19:37:34;;;;;;;;;;;;;;;4.66;86.02;100601.72;6303164;22;20583;-89
2022/04/28 19:39:59;;;;;;;;;;;;;;;4.53;86.14;100606.16;6304965;22;19998;-85
2022/04/28 19:42:24;;;;;;;;;;;;;;;4.43;86.14;100599.19;6302829;22;19915;-89
2022/04/28 19:44:49;;;;;;;;;;;;;;;4.41;86.07;100608.81;6302798;22;19972;-85
2022/04/28 19:47:16;;;;;;;;;;;;;;;4.39;86.12;100602.72;6303158;22;19914;-85
2022/04/28 19:49:43;;;;;;;;;;;;;;;4.35;86.32;100598.34;6302605;22;20179;-86
2022/04/28 19:52:09;;;;;;;;;;;;;;;4.35;86.30;100607.09;6301838;22;19915;-85
2022/04/28 19:54:36;;;;;;;;;;;;;;;4.34;86.31;100612.34;6304488;22;19911;-89
2022/04/28 19:57:01;;;;;;;;;;;;;;;4.32;86.25;100611.47;6302955;22;19911;-89
2022/04/28 19:59:27;;;;;;;;;;;;;;;4.35;86.17;100616.72;6303158;22;19922;-85
2022/04/28 20:01:54;;;;;;;;;;;;;;;4.29;85.90;100616.75;6302136;22;19942;-89
2022/04/28 20:04:19;;;;;;;;;;;;;;;4.31;85.92;100621.13;6302392;22;19919;-88
2022/04/28 20:06:46;;;;;;;;;;;;;;;4.29;85.82;100622.88;6302814;22;19918;-85
2022/04/28 20:09:13;;;;;;;;;;;;;;;4.30;85.73;100627.22;6304333;22;19950;-89
2022/04/28 20:11:42;;;;;;;;;;;;;;;4.28;85.77;100620.28;6301843;22;19985;-85
2022/04/28 20:14:10;;;;;;;;;;;;;;;4.26;86.16;100624.63;6304797;22;19976;-86
2022/04/28 20:16:35;;;;;;;;;;;;;;;4.28;86.11;100630.75;6303229;22;19918;-85
2022/04/28 20:19:01;;;;;;;;;;;;;;;4.22;86.10;100633.41;6304741;22;20251;-87
2022/04/28 20:21:29;;;;;;;;;;;;;;;4.22;86.32;100639.50;6303819;22;19911;-91
2022/04/28 20:23:55;;;;;;;;;;;;;;;4.18;86.48;100635.16;6332317;22;20397;-86
2022/04/28 20:26:21;;;;;;;;;;;;;;;4.21;86.30;100634.25;6307558;22;20566;-89
2022/04/28 20:28:47;;;;;;;;;;;;;;;4.17;86.42;100644.78;6335400;22;19911;-89
2022/04/28 20:31:12;;;;;;;;;;;;;;;4.22;86.58;100646.53;6306941;22;19907;-89
2022/04/28 20:33:38;;;;;;;;;;;;;;;4.21;86.20;100650.88;6335820;22;19919;-90
2022/04/28 20:36:05;;;;;;;;;;;;;;;4.19;86.21;100650.88;6335498;22;20207;-89
2022/04/28 20:38:30;;;;;;;;;;;;;;;4.17;86.29;100650.00;6306993;22;19919;-88
2022/04/28 20:40:56;;;;;;;;;;;;;;;4.19;86.40;100656.13;6308490;22;19911;-90
2022/04/28 20:43:21;;;;;;;;;;;;;;;4.18;86.15;100646.53;6307886;22;19960;-87
2022/04/28 20:45:47;;;;;;;;;;;;;;;4.27;86.11;100648.22;6335352;22;19917;-86
2022/04/28 20:48:13;;;;;;;;;;;;;;;4.19;86.09;100647.38;6335915;22;19925;-87
2022/04/28 20:50:38;;;;;;;;;;;;;;;4.21;86.22;100650.88;6308747;22;20211;-89
2022/04/28 20:53:08;;;;;;;;;;;;;;;4.16;86.03;100648.28;6335105;22;19956;-86
2022/04/28 20:55:35;;;;;;;;;;;;;;;4.18;85.99;100648.28;6308171;22;20413;-89
2022/04/28 20:58:01;;;;;;;;;;;;;;;4.14;86.04;100644.78;6308175;22;19998;-89
2022/04/28 21:00:26;;;;;;;;;;;;;;;4.18;86.00;100643.91;6335555;22;19938;-89
2022/04/28 21:02:51;;;;;;;;;;;;;;;4.16;86.11;100645.66;6307835;22;19915;-86
2022/04/28 21:05:16;;;;;;;;;;;;;;;4.17;86.11;100646.53;6336077;22;19911;-90
2022/04/28 21:07:42;;;;;;;;;;;;;;;4.26;86.10;100653.47;6335220;22;20333;-86
2022/04/28 21:10:12;;;;;;;;;;;;;;;4.17;85.93;100642.16;6309716;22;19922;-88
2022/04/28 21:12:38;;;;;;;;;;;;;;;4.21;85.97;100650.00;6337116;22;19963;-85
2022/04/28 21:15:03;;;;;;;;;;;;;;;4.17;85.80;100642.16;6305069;22;19922;-88
2022/04/28 21:17:29;;;;;;;;;;;;;;;4.11;85.79;100647.41;6309183;22;19914;-87
2022/04/28 21:19:54;;;;;;;;;;;;;;;4.22;85.53;100651.75;6305410;22;19918;-86
2022/04/28 21:22:20;;;;;;;;;;;;;;;4.18;85.60;100648.28;6335967;22;20234;-87
2022/04/28 21:24:45;;;;;;;;;;;;;;;4.17;85.55;100650.00;6336980;22;19922;-88
2022/04/28 21:27:12;;;;;;;;;;;;;;;4.12;85.59;100651.78;6309122;22;19926;-87
2022/04/28 21:29:38;;;;;;;;;;;;;;;4.18;85.70;100662.25;6309430;22;19975;-88
2022/04/28 21:32:03;;;;;;;;;;;;;;;4.17;85.63;100654.41;6309855;22;19915;-87
2022/04/28 21:34:29;;;;;;;;;;;;;;;4.18;85.75;100650.91;6309566;22;19910;-88
2022/04/28 21:36:54;;;;;;;;;;;;;;;4.22;85.54;100652.63;6308331;22;19911;-89
2022/04/28 21:39:19;;;;;;;;;;;;;;;4.19;85.43;100653.50;6309856;22;19911;-85
2022/04/28 21:41:45;;;;;;;;;;;;;;;4.22;85.36;100638.66;6308237;22;19915;-86
2022/04/28 21:44:10;;;;;;;;;;;;;;;4.19;85.09;100643.00;6337144;22;19911;-90
2022/04/28 21:46:36;;;;;;;;;;;;;;;4.18;85.11;100640.41;6309110;22;19910;-88
2022/04/28 21:49:01;;;;;;;;;;;;;;;4.16;84.98;100648.28;6309191;22;19910;-86
2022/04/28 21:51:26;;;;;;;;;;;;;;;4.16;84.67;100652.63;6309129;22;19918;-85
2022/04/28 21:53:52;;;;;;;;;;;;;;;4.12;84.76;100646.53;6307470;22;20212;-88
2022/04/28 21:56:17;;;;;;;;;;;;;;;4.12;84.72;100653.53;6308799;22;19922;-89
2022/04/28 21:58:42;;;;;;;;;;;;;;;4.17;84.77;100660.50;6308720;22;20292;-89
2022/04/28 22:01:08;;;;;;;;;;;;;;;4.12;84.72;100666.66;6336470;22;20406;-87
2022/04/28 22:11:44;;;;;;;;;;;;;;;4.03;83.83;100667.53;6335662;22;19919;-88
2022/04/28 22:14:13;;;;;;;;;;;;;;;4.03;83.60;100667.53;6308752;22;20306;-88
2022/04/28 22:16:38;;;;;;;;;;;;;;;4.05;83.33;100659.66;6309271;22;19993;-88
2022/04/28 22:19:03;;;;;;;;;;;;;;;4.01;83.01;100666.69;6336248;22;19961;-87
2022/04/28 22:21:28;;;;;;;;;;;;;;;4.02;82.85;100655.31;6309423;22;19915;-87
2022/04/28 22:23:54;;;;;;;;;;;;;;;4.01;82.71;100658.81;6302152;22;19922;-88
2022/04/28 22:26:19;;;;;;;;;;;;;;;4.00;82.44;100651.81;6303015;22;19918;-88
2022/04/28 22:28:44;;;;;;;;;;;;;;;3.99;82.40;100655.31;6305724;22;19914;-88
2022/04/28 22:31:10;;;;;;;;;;;;;;;4.01;82.48;100656.19;6304154;22;19910;-89
2022/04/28 22:33:37;;;;;;;;;;;;;;;3.99;82.04;100655.31;6303562;22;19960;-88
2022/04/28 22:36:03;;;;;;;;;;;;;;;3.98;81.95;100658.81;6303562;22;19932;-88
2022/04/28 22:38:28;;;;;;;;;;;;;;;3.99;81.69;100663.19;6300199;22;20342;-87
2022/04/28 22:40:54;;;;;;;;;;;;;;;3.98;81.47;100659.69;6305798;22;19911;-88
2022/04/28 22:43:20;;;;;;;;;;;;;;;3.98;81.43;100645.69;6302236;22;20036;-89
2022/04/28 22:45:46;;;;;;;;;;;;;;;3.98;81.21;100649.19;6303257;22;19911;-88
2022/04/28 22:48:11;;;;;;;;;;;;;;;3.99;81.09;100650.94;6304377;22;20280;-87
2022/04/28 22:50:36;;;;;;;;;;;;;;;4.02;81.42;100655.31;6305267;22;19911;-87
2022/04/28 22:53:02;;;;;;;;;;;;;;;4.01;81.44;100658.81;6302366;22;19994;-87
2022/04/28 22:55:27;;;;;;;;;;;;;;;3.98;81.41;100654.44;6305002;22;19921;-88
2022/04/28 22:57:53;;;;;;;;;;;;;;;4.03;81.34;100657.03;6305647;22;19915;-87
2022/04/28 23:00:18;;;;;;;;;;;;;;;3.99;81.14;100656.19;6302534;22;20311;-89
2022/04/28 23:02:44;;;;;;;;;;;;;;;3.97;81.03;100650.09;6304457;22;20246;-87
2022/04/28 23:05:10;;;;;;;;;;;;;;;3.98;80.92;100648.31;6305542;22;19916;-87
2022/04/28 23:07:35;;;;;;;;;;;;;;;4.01;80.78;100648.31;6302420;22;19914;-88
2022/04/28 23:10:02;;;;;;;;;;;;;;;4.02;80.73;100642.22;6305176;22;19930;-89
2022/04/28 23:12:29;;;;;;;;;;;;;;;4.03;80.62;100645.69;6305212;22;19945;-89
2022/04/28 23:14:55;;;;;;;;;;;;;;;3.99;80.37;100650.09;6305103;22;19953;-87
2022/04/28 23:17:20;;;;;;;;;;;;;;;3.98;80.20;100648.31;6307017;22;19985;-88
2022/04/28 23:19:45;;;;;;;;;;;;;;;3.97;79.94;100647.47;6305575;22;20354;-89
2022/04/28 23:22:10;;;;;;;;;;;;;;;3.97;79.83;100644.84;6307483;22;20230;-89
2022/04/28 23:24:36;;;;;;;;;;;;;;;3.97;79.40;100649.19;6330260;22;19985;-89
2022/04/28 23:27:01;;;;;;;;;;;;;;;4.01;79.44;100653.56;6337813;22;20318;-90
2022/04/28 23:29:27;;;;;;;;;;;;;;;3.98;79.28;100649.19;6309273;22;20233;-89
